createdAt,value
2023-05-08T00:00:59.166Z,9.27
2023-05-08T00:03:27.465Z,9.13
2023-05-08T00:05:57.385Z,8.98
2023-05-08T00:08:25.337Z,8.25
2023-05-08T00:10:54.630Z,9.05
2023-05-08T00:13:23.881Z,9.00
2023-05-08T00:15:51.974Z,9.50
2023-05-08T00:18:20.165Z,9.88
2023-05-08T00:20:47.895Z,9.93
2023-05-08T00:23:15.843Z,10.00
2023-05-08T00:25:43.664Z,9.82
2023-05-08T00:28:13.493Z,10.25
2023-05-08T00:30:42.563Z,9.40
2023-05-08T00:33:12.253Z,10.43
2023-05-08T00:35:41.071Z,12.82
2023-05-08T00:38:08.885Z,10.40
2023-05-08T00:40:36.861Z,10.52
2023-05-08T00:43:04.713Z,13.32
2023-05-08T00:45:38.708Z,11.05
2023-05-08T00:48:07.449Z,10.50
2023-05-08T00:50:36.492Z,13.07
2023-05-08T00:53:05.584Z,10.77
2023-05-08T00:55:34.586Z,10.73
2023-05-08T00:58:03.129Z,10.32
2023-05-08T01:00:32.626Z,12.88
2023-05-08T01:03:02.626Z,10.50
2023-05-08T01:05:31.110Z,11.18
2023-05-08T01:07:59.558Z,11.13
2023-05-08T01:10:37.108Z,11.05
2023-05-08T01:13:13.362Z,11.02
2023-05-08T01:15:48.890Z,10.68
2023-05-08T01:18:24.143Z,11.40
2023-05-08T01:20:58.136Z,13.90
2023-05-08T01:24:23.005Z,11.43
2023-05-08T01:27:26.466Z,11.52
2023-05-08T01:30:26.943Z,13.20
2023-05-08T01:33:00.505Z,12.05
2023-05-08T01:35:33.063Z,13.90
2023-05-08T01:38:07.432Z,13.88
2023-05-08T01:40:41.827Z,13.23
2023-05-08T01:43:19.809Z,13.88
2023-05-08T01:45:50.909Z,13.85
2023-05-08T01:49:21.489Z,16.40
2023-05-08T01:51:59.997Z,14.98
2023-05-08T01:54:34.910Z,16.17
2023-05-08T01:57:05.186Z,18.42
2023-05-08T01:59:34.811Z,22.20
2023-05-08T02:02:04.948Z,17.08
2023-05-08T02:04:34.394Z,16.30
2023-05-08T02:07:04.707Z,16.15
2023-05-08T02:09:33.345Z,15.82
2023-05-08T02:12:02.872Z,16.55
2023-05-08T02:14:31.983Z,16.00
2023-05-08T02:17:02.910Z,16.90
2023-05-08T02:19:32.301Z,16.20
2023-05-08T02:22:01.596Z,17.77
2023-05-08T02:24:33.181Z,16.23
2023-05-08T02:27:01.735Z,17.45
2023-05-08T02:29:31.083Z,16.83
2023-05-08T02:32:00.821Z,16.45
2023-05-08T02:34:31.480Z,20.38
2023-05-08T02:37:01.093Z,17.25
2023-05-08T02:39:33.401Z,31.95
2023-05-08T02:42:02.381Z,19.48
2023-05-08T02:44:30.640Z,17.10
2023-05-08T02:47:07.325Z,19.20
2023-05-08T02:49:44.626Z,17.33
2023-05-08T02:52:18.177Z,17.52
2023-05-08T02:54:57.337Z,21.05
2023-05-08T02:57:34.637Z,18.17
2023-05-08T03:00:06.297Z,16.95
2023-05-08T03:02:39.089Z,17.02
2023-05-08T03:05:17.289Z,16.50
2023-05-08T03:07:48.497Z,18.30
2023-05-08T03:10:20.639Z,17.88
2023-05-08T03:12:53.970Z,17.05
2023-05-08T03:15:27.543Z,17.20
2023-05-08T03:17:59.512Z,17.25
2023-05-08T03:20:32.959Z,17.35
2023-05-08T03:23:03.946Z,16.35
2023-05-08T03:25:35.333Z,17.63
2023-05-08T03:28:06.194Z,17.48
2023-05-08T03:30:37.719Z,18.30
2023-05-08T03:33:10.794Z,19.70
2023-05-08T03:35:40.375Z,17.33
2023-05-08T03:38:10.431Z,17.13
2023-05-08T03:40:42.433Z,17.50
2023-05-08T03:43:13.961Z,17.35
2023-05-08T03:45:41.925Z,18.65
2023-05-08T03:48:11.373Z,18.70
2023-05-08T03:50:39.907Z,17.90
2023-05-08T03:53:12.767Z,18.23
2023-05-08T03:55:41.996Z,17.42
2023-05-08T03:58:19.256Z,17.52
2023-05-08T04:00:59.135Z,16.95
2023-05-08T04:03:39.737Z,17.77
2023-05-08T04:06:13.977Z,16.58
2023-05-08T04:08:47.957Z,17.05
2023-05-08T04:11:26.797Z,17.40
2023-05-08T04:14:01.588Z,16.48
2023-05-08T04:16:36.593Z,17.00
2023-05-08T04:19:11.526Z,16.83
2023-05-08T04:21:43.803Z,16.73
2023-05-08T04:24:16.015Z,17.33
2023-05-08T04:26:47.245Z,16.58
2023-05-08T04:29:17.156Z,17.17
2023-05-08T04:31:45.725Z,21.40
2023-05-08T04:34:14.335Z,18.60
2023-05-08T04:36:42.569Z,16.60
2023-05-08T04:39:10.815Z,17.20
2023-05-08T04:41:38.726Z,16.92
2023-05-08T04:44:08.929Z,16.50
2023-05-08T04:46:36.812Z,16.83
2023-05-08T04:49:04.986Z,18.83
2023-05-08T04:51:33.152Z,15.95
2023-05-08T04:54:01.117Z,20.02
2023-05-08T04:56:29.986Z,16.95
2023-05-08T04:58:57.854Z,15.65
2023-05-08T05:01:27.072Z,15.65
2023-05-08T05:03:55.959Z,16.42
2023-05-08T05:06:24.212Z,15.32
2023-05-08T05:08:52.039Z,14.98
2023-05-08T05:11:19.981Z,14.63
2023-05-08T05:13:48.509Z,16.05
2023-05-08T05:16:16.510Z,15.73
2023-05-08T05:18:45.925Z,14.93
2023-05-08T05:21:13.997Z,17.10
2023-05-08T05:23:42.076Z,16.80
2023-05-08T05:26:09.805Z,15.38
2023-05-08T05:28:38.133Z,14.85
2023-05-08T05:31:06.627Z,15.15
2023-05-08T05:33:36.760Z,14.77
2023-05-08T05:36:06.600Z,15.38
2023-05-08T05:38:34.935Z,15.65
2023-05-08T05:41:02.640Z,14.60
2023-05-08T05:43:30.692Z,14.43
2023-05-08T05:46:05.014Z,15.43
2023-05-08T05:48:33.290Z,14.07
2023-05-08T05:51:01.912Z,15.73
2023-05-08T05:53:32.635Z,14.55
2023-05-08T05:56:00.760Z,17.75
2023-05-08T05:58:29.518Z,15.38
2023-05-08T06:01:00.977Z,15.40
2023-05-08T06:03:29.276Z,14.32
2023-05-08T06:05:57.303Z,15.10
2023-05-08T06:08:27.959Z,15.23
2023-05-08T06:11:02.439Z,14.32
2023-05-08T06:13:33.133Z,15.48
2023-05-08T06:16:11.779Z,15.73
2023-05-08T06:18:41.360Z,15.68
2023-05-08T06:21:13.082Z,14.65
2023-05-08T06:23:42.644Z,14.70
2023-05-08T06:26:12.525Z,14.70
2023-05-08T06:28:40.448Z,14.00
2023-05-08T06:31:08.854Z,14.50
2023-05-08T06:33:36.854Z,15.23
2023-05-08T06:36:06.142Z,15.05
2023-05-08T06:38:34.124Z,14.27
2023-05-08T06:41:02.003Z,14.18
2023-05-08T06:43:31.721Z,14.52
2023-05-08T06:45:59.452Z,15.15
2023-05-08T06:48:29.158Z,14.70
2023-05-08T06:50:57.058Z,14.40
2023-05-08T06:53:25.356Z,15.27
2023-05-08T06:55:53.126Z,14.27
2023-05-08T06:58:20.908Z,15.18
2023-05-08T07:00:50.432Z,14.45
2023-05-08T07:03:18.569Z,14.43
2023-05-08T07:05:46.516Z,14.55
2023-05-08T07:08:14.750Z,14.43
2023-05-08T07:10:43.194Z,13.82
2023-05-08T07:13:11.929Z,14.25
2023-05-08T07:15:40.126Z,15.07
2023-05-08T07:18:09.342Z,15.02
2023-05-08T07:20:37.143Z,14.32
2023-05-08T07:23:04.951Z,14.50
2023-05-08T07:25:32.715Z,14.43
2023-05-08T07:28:01.482Z,15.02
2023-05-08T07:30:29.912Z,14.68
2023-05-08T07:32:57.799Z,14.60
2023-05-08T07:35:26.999Z,14.30
2023-05-08T07:37:54.972Z,14.68
2023-05-08T07:40:22.730Z,13.65
2023-05-08T07:42:50.544Z,14.15
2023-05-08T07:45:18.893Z,13.93
2023-05-08T07:47:50.407Z,14.13
2023-05-08T07:50:18.534Z,13.75
2023-05-08T07:52:50.087Z,15.63
2023-05-08T07:55:18.987Z,14.20
2023-05-08T07:57:47.349Z,14.88
2023-05-08T08:00:17.235Z,13.68
2023-05-08T08:02:45.855Z,13.68
2023-05-08T08:05:14.185Z,14.95
2023-05-08T08:07:42.029Z,14.13
2023-05-08T08:10:11.833Z,14.18
2023-05-08T08:12:39.629Z,14.20
2023-05-08T08:15:09.251Z,13.70
2023-05-08T08:17:37.787Z,15.43
2023-05-08T08:20:06.836Z,13.45
2023-05-08T08:22:34.536Z,14.65
2023-05-08T08:25:03.144Z,14.30
2023-05-08T08:27:32.858Z,14.93
2023-05-08T08:30:16.002Z,14.05
2023-05-08T08:32:46.445Z,14.85
2023-05-08T08:35:14.853Z,14.88
2023-05-08T08:37:44.057Z,15.57
2023-05-08T08:40:12.198Z,14.07
2023-05-08T08:42:41.964Z,16.30
2023-05-08T08:45:11.365Z,13.85
2023-05-08T08:47:41.590Z,14.38
2023-05-08T08:50:13.650Z,14.07
2023-05-08T08:52:48.322Z,14.20
2023-05-08T08:55:19.269Z,14.48
2023-05-08T08:57:58.062Z,14.02
2023-05-08T09:00:29.397Z,14.43
2023-05-08T09:02:57.222Z,14.32
2023-05-08T09:05:26.450Z,14.52
2023-05-08T09:07:56.947Z,15.77
2023-05-08T09:10:25.677Z,14.82
2023-05-08T09:12:55.273Z,14.10
2023-05-08T09:15:23.568Z,14.48
2023-05-08T09:17:51.414Z,13.98
2023-05-08T09:20:20.241Z,14.65
2023-05-08T09:22:48.808Z,14.90
2023-05-08T09:25:18.902Z,15.15
2023-05-08T09:27:46.683Z,15.65
2023-05-08T09:30:16.791Z,13.85
2023-05-08T09:32:45.705Z,15.50
2023-05-08T09:35:14.123Z,15.35
2023-05-08T09:37:43.775Z,15.60
2023-05-08T09:40:17.133Z,15.77
2023-05-08T09:42:45.595Z,17.13
2023-05-08T09:45:26.603Z,16.48
2023-05-08T09:47:54.478Z,15.88
2023-05-08T09:50:22.318Z,17.13
2023-05-08T09:52:50.817Z,16.55
2023-05-08T09:55:18.846Z,15.30
2023-05-08T09:57:54.942Z,16.60
2023-05-08T10:00:26.186Z,14.57
2023-05-08T10:02:59.858Z,14.07
2023-05-08T10:05:32.051Z,15.07
2023-05-08T10:08:18.411Z,15.35
2023-05-08T10:10:46.586Z,16.70
2023-05-08T10:13:15.135Z,15.55
2023-05-08T10:15:44.940Z,15.90
2023-05-08T10:18:13.567Z,16.10
2023-05-08T10:20:45.810Z,15.80
2023-05-08T10:23:17.493Z,15.57
2023-05-08T10:25:47.302Z,16.55
2023-05-08T10:28:20.158Z,15.07
2023-05-08T10:30:51.091Z,16.27
2023-05-08T10:33:22.856Z,17.13
2023-05-08T10:35:50.701Z,15.65
2023-05-08T10:38:19.765Z,17.52
2023-05-08T10:40:50.617Z,15.35
2023-05-08T10:43:19.684Z,16.70
2023-05-08T10:45:48.339Z,16.65
2023-05-08T10:48:27.180Z,16.38
2023-05-08T10:51:04.104Z,14.95
2023-05-08T10:53:39.945Z,15.10
2023-05-08T10:56:08.225Z,15.27
2023-05-08T10:58:39.116Z,14.85
2023-05-08T11:01:17.475Z,15.57
2023-05-08T11:03:50.476Z,14.73
2023-05-08T11:06:46.125Z,15.32
2023-05-08T11:09:23.037Z,13.60
2023-05-08T11:12:18.458Z,14.18
2023-05-08T11:14:57.217Z,14.20
2023-05-08T11:17:26.256Z,15.95
2023-05-08T11:20:00.888Z,15.63
2023-05-08T11:22:31.173Z,14.05
2023-05-08T11:25:01.270Z,13.98
2023-05-08T11:27:57.055Z,17.23
2023-05-08T11:30:28.276Z,14.73
2023-05-08T11:33:15.953Z,14.57
2023-05-08T11:35:53.543Z,15.57
2023-05-08T11:38:27.088Z,15.35
2023-05-08T11:41:07.113Z,15.18
2023-05-08T11:44:09.265Z,15.55
2023-05-08T11:46:40.923Z,16.55
2023-05-08T11:49:12.741Z,15.35
2023-05-08T11:51:45.264Z,16.05
2023-05-08T11:54:15.773Z,16.45
2023-05-08T11:56:44.247Z,15.40
2023-05-08T11:59:13.333Z,16.83
2023-05-08T12:01:41.361Z,16.67
2023-05-08T12:04:10.439Z,17.17
2023-05-08T12:06:39.428Z,16.95
2023-05-08T12:09:14.079Z,17.13
2023-05-08T12:11:43.738Z,16.58
2023-05-08T12:14:12.404Z,16.73
2023-05-08T12:16:41.121Z,17.30
2023-05-08T12:19:11.405Z,16.00
2023-05-08T12:21:39.552Z,18.02
2023-05-08T12:24:09.188Z,19.33
2023-05-08T12:26:39.137Z,18.73
2023-05-08T12:29:08.482Z,16.85
2023-05-08T12:31:36.936Z,16.02
2023-05-08T12:34:04.918Z,16.25
2023-05-08T12:36:35.313Z,17.90
2023-05-08T12:39:16.669Z,16.63
2023-05-08T12:41:50.092Z,16.88
2023-05-08T12:44:19.724Z,16.30
2023-05-08T12:46:48.360Z,17.70
2023-05-08T12:49:24.348Z,17.08
2023-05-08T12:51:53.061Z,18.15
2023-05-08T12:54:21.136Z,17.88
2023-05-08T12:56:51.250Z,17.70
2023-05-08T12:59:29.671Z,16.73
2023-05-08T13:01:57.438Z,18.02
2023-05-08T13:04:25.380Z,17.20
2023-05-08T13:06:56.824Z,16.20
2023-05-08T13:09:25.226Z,17.70
2023-05-08T13:11:54.690Z,17.20
2023-05-08T13:14:22.401Z,16.77
2023-05-08T13:16:51.694Z,16.60
2023-05-08T13:19:20.040Z,17.70
2023-05-08T13:21:47.838Z,17.20
2023-05-08T13:24:15.976Z,17.02
2023-05-08T13:26:43.996Z,17.00
2023-05-08T13:29:13.106Z,15.68
2023-05-08T13:31:40.966Z,16.85
2023-05-08T13:34:10.211Z,16.52
2023-05-08T13:36:38.013Z,16.13
2023-05-08T13:39:06.877Z,16.42
2023-05-08T13:41:34.532Z,16.38
2023-05-08T13:44:02.251Z,15.95
2023-05-08T13:46:31.382Z,16.73
2023-05-08T13:48:59.236Z,15.77
2023-05-08T13:51:27.153Z,14.95
2023-05-08T13:53:55.157Z,16.52
2023-05-08T13:56:23.343Z,17.00
2023-05-08T13:58:51.033Z,20.25
2023-05-08T14:01:26.472Z,17.85
2023-05-08T14:03:56.362Z,16.90
2023-05-08T14:06:24.686Z,15.85
2023-05-08T14:08:54.673Z,15.82
2023-05-08T14:11:24.682Z,15.43
2023-05-08T14:13:52.354Z,15.75
2023-05-08T14:16:20.454Z,17.20
2023-05-08T14:18:48.233Z,16.27
2023-05-08T14:21:17.606Z,16.63
2023-05-08T14:23:45.295Z,16.30
2023-05-08T14:26:13.151Z,16.48
2023-05-08T14:28:40.942Z,16.50
2023-05-08T14:31:08.791Z,16.25
2023-05-08T14:33:36.703Z,15.63
2023-05-08T14:36:05.102Z,16.10
2023-05-08T14:38:34.330Z,17.05
2023-05-08T14:41:04.663Z,16.23
2023-05-08T14:43:33.741Z,16.25
2023-05-08T14:46:01.492Z,16.20
2023-05-08T14:48:29.249Z,15.13
2023-05-08T14:50:57.691Z,16.13
2023-05-08T14:53:26.054Z,15.73
2023-05-08T14:55:55.349Z,15.30
2023-05-08T14:58:23.448Z,16.30
2023-05-08T15:00:51.141Z,15.70
2023-05-08T15:03:19.665Z,13.57
2023-05-08T15:05:48.381Z,12.68
2023-05-08T15:08:18.106Z,14.70
2023-05-08T15:10:45.913Z,12.07
2023-05-08T15:13:15.775Z,11.30
2023-05-08T15:15:43.510Z,10.65
2023-05-08T15:18:11.251Z,11.70
2023-05-08T15:20:39.095Z,11.65
2023-05-08T15:23:07.362Z,11.70
2023-05-08T15:25:35.431Z,10.05
2023-05-08T15:28:03.502Z,9.75
2023-05-08T15:30:32.962Z,10.68
2023-05-08T15:33:01.255Z,13.27
2023-05-08T15:35:29.566Z,9.93
2023-05-08T15:37:57.253Z,9.95
2023-05-08T15:40:25.245Z,11.40
2023-05-08T15:42:53.393Z,11.13
2023-05-08T15:45:21.687Z,11.05
2023-05-08T15:47:52.537Z,13.57
2023-05-08T15:50:20.311Z,10.77
2023-05-08T15:52:48.315Z,12.23
2023-05-08T15:55:17.530Z,9.88
2023-05-08T15:57:45.404Z,9.75
2023-05-08T16:00:14.494Z,10.02
2023-05-08T16:02:42.472Z,9.32
2023-05-08T16:05:13.002Z,10.73
2023-05-08T16:07:40.814Z,10.32
2023-05-08T16:10:10.088Z,12.27
2023-05-08T16:12:37.951Z,20.05
2023-05-08T16:15:07.744Z,34.85
2023-05-08T16:17:35.621Z,14.75
2023-05-08T16:20:03.801Z,37.67
2023-05-08T16:22:32.962Z,11.45
2023-05-08T16:25:00.669Z,10.90
2023-05-08T16:27:29.060Z,10.55
2023-05-08T16:29:56.815Z,10.38
2023-05-08T16:32:24.688Z,10.77
2023-05-08T16:34:52.329Z,10.20
2023-05-08T16:37:20.027Z,11.10
2023-05-08T16:39:49.333Z,9.80
2023-05-08T16:42:18.698Z,10.32
2023-05-08T16:44:46.488Z,9.85
2023-05-08T16:47:14.150Z,9.77
2023-05-08T16:49:42.232Z,10.18
2023-05-08T16:52:10.384Z,10.05
2023-05-08T16:54:38.762Z,10.25
2023-05-08T16:57:08.315Z,9.05
2023-05-08T16:59:35.973Z,12.80
2023-05-08T17:02:03.660Z,12.45
2023-05-08T17:04:31.513Z,13.05
2023-05-08T17:06:59.942Z,15.68
2023-05-08T17:09:28.634Z,19.98
2023-05-08T17:11:58.160Z,11.88
2023-05-08T17:14:28.247Z,9.93
2023-05-08T17:16:56.399Z,10.00
2023-05-08T17:19:24.349Z,12.85
2023-05-08T17:21:52.064Z,9.65
2023-05-08T17:24:20.113Z,8.13
2023-05-08T17:26:47.775Z,9.38
2023-05-08T17:29:15.944Z,8.93
2023-05-08T17:31:45.263Z,10.75
2023-05-08T17:34:13.380Z,11.13
2023-05-08T17:36:41.332Z,10.95
2023-05-08T17:39:09.068Z,9.70
2023-05-08T17:41:36.818Z,10.48
2023-05-08T17:44:05.274Z,10.63
2023-05-08T17:46:33.010Z,11.80
2023-05-08T17:49:02.229Z,10.57
2023-05-08T17:51:30.188Z,14.52
2023-05-08T17:53:58.024Z,10.57
2023-05-08T17:56:25.855Z,10.60
2023-05-08T17:58:55.344Z,11.70
2023-05-08T18:01:23.965Z,10.40
2023-05-08T18:03:53.842Z,9.63
2023-05-08T18:06:23.158Z,12.07
2023-05-08T18:08:50.903Z,11.10
2023-05-08T18:11:19.744Z,11.65
2023-05-08T18:13:47.639Z,15.02
2023-05-08T18:16:18.320Z,11.35
2023-05-08T18:18:46.741Z,11.05
2023-05-08T18:21:15.094Z,11.02
2023-05-08T18:23:44.282Z,11.82
2023-05-08T18:26:15.366Z,13.13
2023-05-08T18:28:43.409Z,10.45
2023-05-08T18:31:11.818Z,10.85
2023-05-08T18:33:40.083Z,11.52
2023-05-08T18:36:08.516Z,12.18
2023-05-08T18:38:36.588Z,11.90
2023-05-08T18:41:06.250Z,10.65
2023-05-08T18:43:34.635Z,11.68
2023-05-08T18:46:08.816Z,13.18
2023-05-08T18:48:37.176Z,10.57
2023-05-08T18:51:05.626Z,11.43
2023-05-08T18:53:34.563Z,11.48
2023-05-08T18:56:05.844Z,12.15
2023-05-08T18:58:33.774Z,12.20
2023-05-08T19:01:01.886Z,11.48
2023-05-08T19:03:29.721Z,11.35
2023-05-08T19:05:57.875Z,11.27
2023-05-08T19:08:25.751Z,11.80
2023-05-08T19:10:53.879Z,11.55
2023-05-08T19:13:23.137Z,11.60
2023-05-08T19:15:51.223Z,11.68
2023-05-08T19:18:19.243Z,11.20
2023-05-08T19:20:47.058Z,11.32
2023-05-08T19:23:17.326Z,10.98
2023-05-08T19:25:45.019Z,11.40
2023-05-08T19:28:12.868Z,12.15
2023-05-08T19:30:42.145Z,11.13
2023-05-08T19:33:10.862Z,11.77
2023-05-08T19:35:39.102Z,12.52
2023-05-08T19:38:06.961Z,11.88
2023-05-08T19:40:48.099Z,11.45
2023-05-08T19:43:22.946Z,11.82
2023-05-08T19:45:52.081Z,11.23
2023-05-08T19:48:20.424Z,11.25
2023-05-08T19:50:48.566Z,12.25
2023-05-08T19:53:16.710Z,11.13
2023-05-08T19:55:44.421Z,12.30
2023-05-08T19:58:12.111Z,17.83
2023-05-08T20:00:39.991Z,11.18
2023-05-08T20:03:09.463Z,12.05
2023-05-08T20:05:37.541Z,13.45
2023-05-08T20:08:05.825Z,12.00
2023-05-08T20:10:33.656Z,11.65
2023-05-08T20:13:02.012Z,12.55
2023-05-08T20:15:29.885Z,12.80
2023-05-08T20:17:59.215Z,13.55
2023-05-08T20:20:29.661Z,12.38
2023-05-08T20:22:58.152Z,12.88
2023-05-08T20:25:27.268Z,13.13
2023-05-08T20:27:54.924Z,13.60
2023-05-08T20:30:23.658Z,13.05
2023-05-08T20:32:53.228Z,13.95
2023-05-08T20:35:21.799Z,13.15
2023-05-08T20:37:50.853Z,12.38
2023-05-08T20:40:19.656Z,15.73
2023-05-08T20:42:47.674Z,13.57
2023-05-08T20:45:15.455Z,14.50
2023-05-08T20:47:43.171Z,13.52
2023-05-08T20:50:11.493Z,13.85
2023-05-08T20:52:41.896Z,13.63
2023-05-08T20:55:12.268Z,15.88
2023-05-08T20:57:40.261Z,16.13
2023-05-08T21:00:09.729Z,13.32
2023-05-08T21:02:38.713Z,15.43
2023-05-08T21:05:07.635Z,14.75
2023-05-08T21:07:36.129Z,14.10
2023-05-08T21:10:04.104Z,14.38
2023-05-08T21:12:33.184Z,15.02
2023-05-08T21:15:01.657Z,14.00
2023-05-08T21:17:29.654Z,13.10
2023-05-08T21:19:58.006Z,11.90
2023-05-08T21:22:25.872Z,13.77
2023-05-08T21:24:53.702Z,13.35
2023-05-08T21:27:21.415Z,13.13
2023-05-08T21:29:50.455Z,13.38
2023-05-08T21:32:18.196Z,14.05
2023-05-08T21:34:46.484Z,13.10
2023-05-08T21:37:14.254Z,13.43
2023-05-08T21:39:42.692Z,15.45
2023-05-08T21:42:11.211Z,13.98
2023-05-08T21:44:38.850Z,13.05
2023-05-08T21:47:08.319Z,13.38
2023-05-08T21:49:36.007Z,12.95
2023-05-08T21:52:04.046Z,13.75
2023-05-08T21:54:31.945Z,13.68
2023-05-08T21:57:00.127Z,14.23
2023-05-08T21:59:28.024Z,13.60
2023-05-08T22:01:55.725Z,13.85
2023-05-08T22:04:24.900Z,13.25
2023-05-08T22:06:52.554Z,14.18
2023-05-08T22:09:20.180Z,13.93
2023-05-08T22:11:47.886Z,14.70
2023-05-08T22:14:15.602Z,14.05
2023-05-08T22:16:43.667Z,14.32
2023-05-08T22:19:11.709Z,14.60
2023-05-08T22:21:41.604Z,14.90
2023-05-08T22:24:09.382Z,16.23
2023-05-08T22:26:37.204Z,15.07
2023-05-08T22:29:07.028Z,15.55
2023-05-08T22:31:34.807Z,14.35
2023-05-08T22:34:02.532Z,14.95
2023-05-08T22:36:30.272Z,16.27
2023-05-08T22:39:00.812Z,16.17
2023-05-08T22:41:30.560Z,15.57
2023-05-08T22:43:58.404Z,15.63
2023-05-08T22:46:26.481Z,16.05
2023-05-08T22:48:54.952Z,16.50
2023-05-08T22:51:22.869Z,23.10
2023-05-08T22:53:50.805Z,17.20
2023-05-08T22:56:19.906Z,16.90
2023-05-08T22:58:47.598Z,16.67
2023-05-08T23:01:17.229Z,16.45
2023-05-08T23:03:45.048Z,17.27
2023-05-08T23:06:13.283Z,17.60
2023-05-08T23:08:40.953Z,18.30
2023-05-08T23:11:08.752Z,16.75
2023-05-08T23:13:38.764Z,15.88
2023-05-08T23:16:07.142Z,17.15
2023-05-08T23:18:35.120Z,16.60
2023-05-08T23:21:06.491Z,16.75
2023-05-08T23:23:34.466Z,18.17
2023-05-08T23:26:05.086Z,17.45
2023-05-08T23:28:35.172Z,16.63
2023-05-08T23:31:05.154Z,16.13
2023-05-08T23:33:33.067Z,15.80
2023-05-08T23:36:01.136Z,16.63
2023-05-08T23:38:28.944Z,17.23
2023-05-08T23:40:57.173Z,18.73
2023-05-08T23:43:25.420Z,17.42
2023-05-08T23:45:53.280Z,14.43
2023-05-08T23:48:23.934Z,16.02
2023-05-08T23:50:52.062Z,16.23
2023-05-08T23:53:19.956Z,16.85
2023-05-08T23:55:50.588Z,16.83
2023-05-08T23:58:18.912Z,16.20
